sensor_id;sensor_type;location;lat;lon;timestamp;P1;durP1;ratioP1;P2;durP2;ratioP2
9661;SDS011;24982;52.344;12.990;2022-08-19T00:01:00;8.00;;;7.30;;
9661;SDS011;24982;52.344;12.990;2022-08-19T00:04:03;8.35;;;7.68;;
9661;SDS011;24982;52.344;12.990;2022-08-19T00:07:07;8.05;;;7.40;;
9661;SDS011;24982;52.344;12.990;2022-08-19T00:10:09;8.68;;;7.80;;
9661;SDS011;24982;52.344;12.990;2022-08-19T00:13:15;8.02;;;7.53;;
9661;SDS011;24982;52.344;12.990;2022-08-19T00:16:18;8.43;;;7.72;;
9661;SDS011;24982;52.344;12.990;2022-08-19T00:19:21;8.43;;;7.80;;
9661;SDS011;24982;52.344;12.990;2022-08-19T00:22:24;8.80;;;8.10;;
9661;SDS011;24982;52.344;12.990;2022-08-19T00:25:28;9.25;;;8.52;;
9661;SDS011;24982;52.344;12.990;2022-08-19T00:28:30;8.73;;;7.88;;
9661;SDS011;24982;52.344;12.990;2022-08-19T00:31:34;10.35;;;9.30;;
9661;SDS011;24982;52.344;12.990;2022-08-19T00:34:36;10.10;;;9.10;;
9661;SDS011;24982;52.344;12.990;2022-08-19T00:37:38;9.77;;;8.90;;
9661;SDS011;24982;52.344;12.990;2022-08-19T00:40:43;9.80;;;9.00;;
9661;SDS011;24982;52.344;12.990;2022-08-19T00:43:56;10.65;;;9.68;;
9661;SDS011;24982;52.344;12.990;2022-08-19T00:47:00;10.50;;;9.50;;
9661;SDS011;24982;52.344;12.990;2022-08-19T00:50:02;11.27;;;10.27;;
9661;SDS011;24982;52.344;12.990;2022-08-19T00:53:05;10.55;;;9.55;;
9661;SDS011;24982;52.344;12.990;2022-08-19T00:56:07;11.27;;;10.20;;
9661;SDS011;24982;52.344;12.990;2022-08-19T00:59:10;10.73;;;9.82;;
9661;SDS011;24982;52.344;12.990;2022-08-19T01:02:13;10.50;;;9.70;;
9661;SDS011;24982;52.344;12.990;2022-08-19T01:05:17;10.98;;;9.88;;
9661;SDS011;24982;52.344;12.990;2022-08-19T01:08:22;10.82;;;9.80;;
9661;SDS011;24982;52.344;12.990;2022-08-19T01:11:25;10.02;;;9.13;;
9661;SDS011;24982;52.344;12.990;2022-08-19T01:14:27;10.80;;;9.93;;
9661;SDS011;24982;52.344;12.990;2022-08-19T01:17:31;11.48;;;10.48;;
9661;SDS011;24982;52.344;12.990;2022-08-19T01:20:34;11.95;;;10.80;;
9661;SDS011;24982;52.344;12.990;2022-08-19T01:23:38;11.82;;;10.82;;
9661;SDS011;24982;52.344;12.990;2022-08-19T01:26:45;10.95;;;10.05;;
9661;SDS011;24982;52.344;12.990;2022-08-19T01:29:47;11.35;;;10.45;;
9661;SDS011;24982;52.344;12.990;2022-08-19T01:32:50;10.63;;;9.82;;
9661;SDS011;24982;52.344;12.990;2022-08-19T01:35:52;10.88;;;9.98;;
9661;SDS011;24982;52.344;12.990;2022-08-19T01:38:56;11.80;;;10.80;;
9661;SDS011;24982;52.344;12.990;2022-08-19T01:41:59;12.23;;;11.13;;
9661;SDS011;24982;52.344;12.990;2022-08-19T01:45:03;11.95;;;10.95;;
9661;SDS011;24982;52.344;12.990;2022-08-19T01:48:07;11.57;;;10.48;;
9661;SDS011;24982;52.344;12.990;2022-08-19T01:51:10;12.10;;;11.00;;
9661;SDS011;24982;52.344;12.990;2022-08-19T01:54:14;10.82;;;9.93;;
9661;SDS011;24982;52.344;12.990;2022-08-19T01:57:17;12.65;;;11.45;;
9661;SDS011;24982;52.344;12.990;2022-08-19T02:00:20;11.88;;;10.68;;
9661;SDS011;24982;52.344;12.990;2022-08-19T02:03:24;12.35;;;11.10;;
9661;SDS011;24982;52.344;12.990;2022-08-19T02:06:26;12.65;;;10.80;;
9661;SDS011;24982;52.344;12.990;2022-08-19T02:09:31;10.48;;;9.57;;
9661;SDS011;24982;52.344;12.990;2022-08-19T02:12:33;12.32;;;11.23;;
9661;SDS011;24982;52.344;12.990;2022-08-19T02:15:35;11.55;;;10.45;;
9661;SDS011;24982;52.344;12.990;2022-08-19T02:18:37;10.45;;;9.65;;
9661;SDS011;24982;52.344;12.990;2022-08-19T02:21:39;12.32;;;11.23;;
9661;SDS011;24982;52.344;12.990;2022-08-19T02:24:43;12.77;;;11.48;;
9661;SDS011;24982;52.344;12.990;2022-08-19T02:27:45;12.80;;;11.50;;
9661;SDS011;24982;52.344;12.990;2022-08-19T02:30:47;12.15;;;11.15;;
9661;SDS011;24982;52.344;12.990;2022-08-19T02:33:49;12.73;;;11.52;;
9661;SDS011;24982;52.344;12.990;2022-08-19T02:36:52;12.23;;;11.23;;
9661;SDS011;24982;52.344;12.990;2022-08-19T02:39:55;12.50;;;11.40;;
9661;SDS011;24982;52.344;12.990;2022-08-19T02:42:57;13.65;;;12.45;;
9661;SDS011;24982;52.344;12.990;2022-08-19T02:46:00;13.35;;;12.07;;
9661;SDS011;24982;52.344;12.990;2022-08-19T02:49:03;12.38;;;11.32;;
9661;SDS011;24982;52.344;12.990;2022-08-19T02:52:07;11.27;;;10.23;;
9661;SDS011;24982;52.344;12.990;2022-08-19T02:55:10;11.50;;;10.55;;
9661;SDS011;24982;52.344;12.990;2022-08-19T02:58:13;11.88;;;10.90;;
9661;SDS011;24982;52.344;12.990;2022-08-19T03:01:19;10.63;;;9.75;;
9661;SDS011;24982;52.344;12.990;2022-08-19T03:04:22;11.70;;;10.70;;
9661;SDS011;24982;52.344;12.990;2022-08-19T03:07:24;10.80;;;9.90;;
9661;SDS011;24982;52.344;12.990;2022-08-19T03:10:27;12.38;;;11.27;;
9661;SDS011;24982;52.344;12.990;2022-08-19T03:13:29;12.40;;;11.10;;
9661;SDS011;24982;52.344;12.990;2022-08-19T03:16:32;11.50;;;10.50;;
9661;SDS011;24982;52.344;12.990;2022-08-19T03:19:42;11.07;;;10.18;;
9661;SDS011;24982;52.344;12.990;2022-08-19T03:22:44;12.48;;;11.00;;
9661;SDS011;24982;52.344;12.990;2022-08-19T03:25:48;12.25;;;11.02;;
9661;SDS011;24982;52.344;12.990;2022-08-19T03:28:51;12.10;;;11.10;;
9661;SDS011;24982;52.344;12.990;2022-08-19T03:31:53;12.95;;;11.90;;
9661;SDS011;24982;52.344;12.990;2022-08-19T03:34:55;11.88;;;10.77;;
9661;SDS011;24982;52.344;12.990;2022-08-19T03:37:57;12.43;;;11.38;;
9661;SDS011;24982;52.344;12.990;2022-08-19T03:41:03;11.85;;;10.88;;
9661;SDS011;24982;52.344;12.990;2022-08-19T03:44:08;11.77;;;10.77;;
9661;SDS011;24982;52.344;12.990;2022-08-19T03:47:10;12.05;;;11.05;;
9661;SDS011;24982;52.344;12.990;2022-08-19T03:50:16;11.95;;;10.85;;
9661;SDS011;24982;52.344;12.990;2022-08-19T03:53:19;11.98;;;10.90;;
9661;SDS011;24982;52.344;12.990;2022-08-19T03:56:23;12.70;;;11.60;;
9661;SDS011;24982;52.344;12.990;2022-08-19T03:59:27;11.65;;;10.75;;
9661;SDS011;24982;52.344;12.990;2022-08-19T04:02:32;12.48;;;11.30;;
9661;SDS011;24982;52.344;12.990;2022-08-19T04:05:34;12.55;;;11.50;;
9661;SDS011;24982;52.344;12.990;2022-08-19T04:08:38;11.77;;;10.88;;
9661;SDS011;24982;52.344;12.990;2022-08-19T04:11:42;12.55;;;11.55;;
9661;SDS011;24982;52.344;12.990;2022-08-19T04:14:47;12.32;;;11.32;;
9661;SDS011;24982;52.344;12.990;2022-08-19T04:17:49;12.93;;;11.90;;
9661;SDS011;24982;52.344;12.990;2022-08-19T04:20:51;12.10;;;11.10;;
9661;SDS011;24982;52.344;12.990;2022-08-19T04:23:54;12.60;;;11.50;;
9661;SDS011;24982;52.344;12.990;2022-08-19T04:27:00;13.07;;;11.88;;
9661;SDS011;24982;52.344;12.990;2022-08-19T04:30:02;11.82;;;10.82;;
9661;SDS011;24982;52.344;12.990;2022-08-19T04:33:05;12.98;;;11.88;;
9661;SDS011;24982;52.344;12.990;2022-08-19T04:36:10;12.52;;;11.45;;
9661;SDS011;24982;52.344;12.990;2022-08-19T04:39:21;14.00;;;12.75;;
9661;SDS011;24982;52.344;12.990;2022-08-19T04:42:45;15.77;;;14.35;;
9661;SDS011;24982;52.344;12.990;2022-08-19T04:45:46;15.57;;;14.15;;
9661;SDS011;24982;52.344;12.990;2022-08-19T04:48:48;16.42;;;14.93;;
9661;SDS011;24982;52.344;12.990;2022-08-19T04:51:51;17.88;;;16.20;;
9661;SDS011;24982;52.344;12.990;2022-08-19T04:54:55;17.55;;;16.05;;
9661;SDS011;24982;52.344;12.990;2022-08-19T04:57:58;16.08;;;14.55;;
9661;SDS011;24982;52.344;12.990;2022-08-19T05:01:00;15.93;;;14.52;;
9661;SDS011;24982;52.344;12.990;2022-08-19T05:04:03;17.10;;;15.60;;
9661;SDS011;24982;52.344;12.990;2022-08-19T05:07:07;15.30;;;13.85;;
9661;SDS011;24982;52.344;12.990;2022-08-19T05:10:10;14.23;;;12.90;;
9661;SDS011;24982;52.344;12.990;2022-08-19T05:13:14;14.68;;;13.48;;
9661;SDS011;24982;52.344;12.990;2022-08-19T05:16:18;14.63;;;13.43;;
9661;SDS011;24982;52.344;12.990;2022-08-19T05:19:21;14.13;;;12.93;;
9661;SDS011;24982;52.344;12.990;2022-08-19T05:22:40;14.32;;;13.13;;
9661;SDS011;24982;52.344;12.990;2022-08-19T05:25:43;16.95;;;15.45;;
9661;SDS011;24982;52.344;12.990;2022-08-19T05:28:46;14.75;;;13.50;;
9661;SDS011;24982;52.344;12.990;2022-08-19T05:31:49;15.27;;;13.95;;
9661;SDS011;24982;52.344;12.990;2022-08-19T05:34:52;14.57;;;13.38;;
9661;SDS011;24982;52.344;12.990;2022-08-19T05:37:54;16.17;;;14.68;;
9661;SDS011;24982;52.344;12.990;2022-08-19T05:40:57;16.40;;;15.00;;
9661;SDS011;24982;52.344;12.990;2022-08-19T05:44:03;16.70;;;15.10;;
9661;SDS011;24982;52.344;12.990;2022-08-19T05:47:09;16.35;;;15.02;;
9661;SDS011;24982;52.344;12.990;2022-08-19T05:50:12;17.08;;;15.45;;
9661;SDS011;24982;52.344;12.990;2022-08-19T05:53:14;16.00;;;14.52;;
9661;SDS011;24982;52.344;12.990;2022-08-19T05:56:17;17.10;;;15.57;;
9661;SDS011;24982;52.344;12.990;2022-08-19T05:59:22;16.98;;;15.52;;
9661;SDS011;24982;52.344;12.990;2022-08-19T06:02:24;18.58;;;16.90;;
9661;SDS011;24982;52.344;12.990;2022-08-19T06:05:26;17.75;;;16.15;;
9661;SDS011;24982;52.344;12.990;2022-08-19T06:08:28;19.63;;;17.73;;
9661;SDS011;24982;52.344;12.990;2022-08-19T06:11:35;19.10;;;17.10;;
9661;SDS011;24982;52.344;12.990;2022-08-19T06:14:40;16.10;;;14.90;;
9661;SDS011;24982;52.344;12.990;2022-08-19T06:17:42;17.75;;;16.15;;
9661;SDS011;24982;52.344;12.990;2022-08-19T06:20:45;17.90;;;16.40;;
9661;SDS011;24982;52.344;12.990;2022-08-19T06:23:47;17.85;;;16.25;;
9661;SDS011;24982;52.344;12.990;2022-08-19T06:26:52;19.60;;;17.90;;
9661;SDS011;24982;52.344;12.990;2022-08-19T06:29:57;17.65;;;16.05;;
9661;SDS011;24982;52.344;12.990;2022-08-19T06:32:59;18.65;;;16.77;;
9661;SDS011;24982;52.344;12.990;2022-08-19T06:36:02;18.35;;;16.65;;
9661;SDS011;24982;52.344;12.990;2022-08-19T06:39:05;17.77;;;16.25;;
9661;SDS011;24982;52.344;12.990;2022-08-19T06:42:09;18.45;;;16.83;;
9661;SDS011;24982;52.344;12.990;2022-08-19T06:45:17;17.42;;;15.93;;
9661;SDS011;24982;52.344;12.990;2022-08-19T06:48:20;18.05;;;16.48;;
9661;SDS011;24982;52.344;12.990;2022-08-19T06:51:22;18.20;;;16.70;;
9661;SDS011;24982;52.344;12.990;2022-08-19T06:54:25;17.15;;;15.65;;
9661;SDS011;24982;52.344;12.990;2022-08-19T06:57:28;17.17;;;15.57;;
9661;SDS011;24982;52.344;12.990;2022-08-19T07:00:34;18.25;;;16.63;;
9661;SDS011;24982;52.344;12.990;2022-08-19T07:03:37;17.10;;;15.50;;
9661;SDS011;24982;52.344;12.990;2022-08-19T07:06:41;17.48;;;15.75;;
9661;SDS011;24982;52.344;12.990;2022-08-19T07:09:44;16.65;;;14.73;;
9661;SDS011;24982;52.344;12.990;2022-08-19T07:12:47;14.70;;;13.50;;
9661;SDS011;24982;52.344;12.990;2022-08-19T07:15:51;16.13;;;14.73;;
9661;SDS011;24982;52.344;12.990;2022-08-19T07:18:54;17.00;;;15.60;;
9661;SDS011;24982;52.344;12.990;2022-08-19T07:21:56;15.73;;;14.43;;
9661;SDS011;24982;52.344;12.990;2022-08-19T07:24:59;15.80;;;14.40;;
9661;SDS011;24982;52.344;12.990;2022-08-19T07:28:03;14.85;;;13.65;;
9661;SDS011;24982;52.344;12.990;2022-08-19T07:31:09;16.42;;;15.02;;
9661;SDS011;24982;52.344;12.990;2022-08-19T07:34:13;15.52;;;14.10;;
9661;SDS011;24982;52.344;12.990;2022-08-19T07:37:15;17.38;;;15.75;;
9661;SDS011;24982;52.344;12.990;2022-08-19T07:40:17;18.85;;;16.95;;
9661;SDS011;24982;52.344;12.990;2022-08-19T07:43:19;17.95;;;16.45;;
9661;SDS011;24982;52.344;12.990;2022-08-19T07:46:26;18.15;;;16.42;;
9661;SDS011;24982;52.344;12.990;2022-08-19T07:49:31;18.63;;;16.83;;
9661;SDS011;24982;52.344;12.990;2022-08-19T07:52:33;18.98;;;17.30;;
9661;SDS011;24982;52.344;12.990;2022-08-19T07:55:36;20.65;;;18.85;;
9661;SDS011;24982;52.344;12.990;2022-08-19T07:58:39;22.02;;;20.13;;
9661;SDS011;24982;52.344;12.990;2022-08-19T08:01:44;23.33;;;21.23;;
9661;SDS011;24982;52.344;12.990;2022-08-19T08:04:46;23.02;;;21.13;;
9661;SDS011;24982;52.344;12.990;2022-08-19T08:08:06;23.85;;;21.65;;
9661;SDS011;24982;52.344;12.990;2022-08-19T08:11:37;24.30;;;22.15;;
9661;SDS011;24982;52.344;12.990;2022-08-19T08:14:40;24.58;;;22.35;;
9661;SDS011;24982;52.344;12.990;2022-08-19T08:17:47;20.77;;;18.90;;
9661;SDS011;24982;52.344;12.990;2022-08-19T08:20:49;19.85;;;17.85;;
9661;SDS011;24982;52.344;12.990;2022-08-19T08:23:51;24.08;;;21.98;;
9661;SDS011;24982;52.344;12.990;2022-08-19T08:26:55;23.60;;;21.40;;
9661;SDS011;24982;52.344;12.990;2022-08-19T08:29:59;24.75;;;22.55;;
9661;SDS011;24982;52.344;12.990;2022-08-19T08:33:02;21.10;;;19.23;;
9661;SDS011;24982;52.344;12.990;2022-08-19T08:36:05;19.13;;;17.42;;
9661;SDS011;24982;52.344;12.990;2022-08-19T08:39:08;21.13;;;19.35;;
9661;SDS011;24982;52.344;12.990;2022-08-19T08:42:11;21.20;;;19.35;;
9661;SDS011;24982;52.344;12.990;2022-08-19T08:45:20;29.40;;;26.52;;
9661;SDS011;24982;52.344;12.990;2022-08-19T08:48:27;29.50;;;26.55;;
9661;SDS011;24982;52.344;12.990;2022-08-19T08:51:37;28.05;;;25.50;;
9661;SDS011;24982;52.344;12.990;2022-08-19T08:54:43;28.42;;;25.83;;
9661;SDS011;24982;52.344;12.990;2022-08-19T08:57:51;28.17;;;25.33;;
9661;SDS011;24982;52.344;12.990;2022-08-19T09:00:56;30.55;;;27.67;;
9661;SDS011;24982;52.344;12.990;2022-08-19T09:03:59;31.13;;;27.83;;
9661;SDS011;24982;52.344;12.990;2022-08-19T09:10:32;30.38;;;27.48;;
9661;SDS011;24982;52.344;12.990;2022-08-19T09:13:42;30.70;;;27.88;;
9661;SDS011;24982;52.344;12.990;2022-08-19T09:16:54;32.97;;;29.45;;
9661;SDS011;24982;52.344;12.990;2022-08-19T09:19:59;32.35;;;29.33;;
9661;SDS011;24982;52.344;12.990;2022-08-19T09:23:08;34.13;;;30.85;;
9661;SDS011;24982;52.344;12.990;2022-08-19T09:26:12;34.35;;;31.05;;
9661;SDS011;24982;52.344;12.990;2022-08-19T09:29:15;34.08;;;30.65;;
9661;SDS011;24982;52.344;12.990;2022-08-19T09:32:17;31.92;;;28.90;;
9661;SDS011;24982;52.344;12.990;2022-08-19T09:35:21;32.33;;;29.33;;
9661;SDS011;24982;52.344;12.990;2022-08-19T09:38:26;32.28;;;29.15;;
9661;SDS011;24982;52.344;12.990;2022-08-19T09:41:28;33.25;;;29.98;;
9661;SDS011;24982;52.344;12.990;2022-08-19T09:44:30;35.38;;;31.92;;
9661;SDS011;24982;52.344;12.990;2022-08-19T09:47:34;35.55;;;31.00;;
9661;SDS011;24982;52.344;12.990;2022-08-19T09:50:39;32.05;;;28.75;;
9661;SDS011;24982;52.344;12.990;2022-08-19T09:53:41;33.25;;;29.98;;
9661;SDS011;24982;52.344;12.990;2022-08-19T09:56:44;34.28;;;30.83;;
9661;SDS011;24982;52.344;12.990;2022-08-19T09:59:46;35.08;;;31.58;;
9661;SDS011;24982;52.344;12.990;2022-08-19T10:02:48;34.13;;;30.77;;
9661;SDS011;24982;52.344;12.990;2022-08-19T10:05:52;35.03;;;31.42;;
9661;SDS011;24982;52.344;12.990;2022-08-19T10:08:54;34.13;;;30.67;;
9661;SDS011;24982;52.344;12.990;2022-08-19T10:11:57;35.00;;;31.38;;
9661;SDS011;24982;52.344;12.990;2022-08-19T10:15:01;33.83;;;30.50;;
9661;SDS011;24982;52.344;12.990;2022-08-19T10:18:03;32.17;;;29.02;;
9661;SDS011;24982;52.344;12.990;2022-08-19T10:21:07;35.88;;;32.35;;
9661;SDS011;24982;52.344;12.990;2022-08-19T10:24:11;35.85;;;32.30;;
9661;SDS011;24982;52.344;12.990;2022-08-19T10:27:13;36.70;;;33.00;;
9661;SDS011;24982;52.344;12.990;2022-08-19T10:30:15;36.67;;;32.90;;
9661;SDS011;24982;52.344;12.990;2022-08-19T10:33:17;35.33;;;31.63;;
9661;SDS011;24982;52.344;12.990;2022-08-19T10:36:21;38.58;;;33.88;;
9661;SDS011;24982;52.344;12.990;2022-08-19T10:39:24;36.17;;;32.60;;
9661;SDS011;24982;52.344;12.990;2022-08-19T10:42:29;36.13;;;32.42;;
9661;SDS011;24982;52.344;12.990;2022-08-19T10:45:32;36.08;;;32.33;;
9661;SDS011;24982;52.344;12.990;2022-08-19T10:48:34;37.75;;;33.85;;
9661;SDS011;24982;52.344;12.990;2022-08-19T10:51:38;41.55;;;36.25;;
9661;SDS011;24982;52.344;12.990;2022-08-19T10:54:58;37.65;;;33.78;;
9661;SDS011;24982;52.344;12.990;2022-08-19T10:58:19;38.92;;;34.78;;
9661;SDS011;24982;52.344;12.990;2022-08-19T11:01:23;35.13;;;31.55;;
9661;SDS011;24982;52.344;12.990;2022-08-19T11:04:26;35.85;;;32.15;;
9661;SDS011;24982;52.344;12.990;2022-08-19T11:07:30;34.28;;;30.67;;
9661;SDS011;24982;52.344;12.990;2022-08-19T11:10:32;35.60;;;32.10;;
9661;SDS011;24982;52.344;12.990;2022-08-19T11:13:35;37.92;;;33.90;;
9661;SDS011;24982;52.344;12.990;2022-08-19T11:16:39;35.08;;;31.30;;
9661;SDS011;24982;52.344;12.990;2022-08-19T11:19:42;38.65;;;34.63;;
9661;SDS011;24982;52.344;12.990;2022-08-19T11:22:46;34.85;;;31.20;;
9661;SDS011;24982;52.344;12.990;2022-08-19T11:25:49;34.78;;;31.27;;
9661;SDS011;24982;52.344;12.990;2022-08-19T11:28:51;32.70;;;29.08;;
9661;SDS011;24982;52.344;12.990;2022-08-19T11:31:54;35.28;;;31.38;;
9661;SDS011;24982;52.344;12.990;2022-08-19T11:34:56;33.60;;;30.10;;
9661;SDS011;24982;52.344;12.990;2022-08-19T11:38:00;35.35;;;31.70;;
9661;SDS011;24982;52.344;12.990;2022-08-19T11:41:03;35.17;;;31.52;;
9661;SDS011;24982;52.344;12.990;2022-08-19T11:44:07;28.52;;;25.55;;
9661;SDS011;24982;52.344;12.990;2022-08-19T11:47:09;33.55;;;30.08;;
9661;SDS011;24982;52.344;12.990;2022-08-19T11:50:11;30.67;;;27.50;;
9661;SDS011;24982;52.344;12.990;2022-08-19T11:53:15;31.98;;;28.63;;
9661;SDS011;24982;52.344;12.990;2022-08-19T11:56:19;29.88;;;26.95;;
9661;SDS011;24982;52.344;12.990;2022-08-19T11:59:22;28.60;;;25.75;;
9661;SDS011;24982;52.344;12.990;2022-08-19T12:02:24;27.33;;;24.75;;
9661;SDS011;24982;52.344;12.990;2022-08-19T12:05:26;27.42;;;24.73;;
9661;SDS011;24982;52.344;12.990;2022-08-19T12:08:29;24.90;;;22.50;;
9661;SDS011;24982;52.344;12.990;2022-08-19T12:11:31;24.25;;;21.88;;
9661;SDS011;24982;52.344;12.990;2022-08-19T12:14:33;23.48;;;21.08;;
9661;SDS011;24982;52.344;12.990;2022-08-19T12:17:36;22.70;;;20.60;;
9661;SDS011;24982;52.344;12.990;2022-08-19T12:20:38;22.90;;;20.33;;
9661;SDS011;24982;52.344;12.990;2022-08-19T12:23:47;20.85;;;18.90;;
9661;SDS011;24982;52.344;12.990;2022-08-19T12:26:50;20.48;;;18.58;;
9661;SDS011;24982;52.344;12.990;2022-08-19T12:29:54;17.30;;;15.70;;
9661;SDS011;24982;52.344;12.990;2022-08-19T12:32:56;18.48;;;16.67;;
9661;SDS011;24982;52.344;12.990;2022-08-19T12:36:00;18.88;;;17.13;;
9661;SDS011;24982;52.344;12.990;2022-08-19T12:39:05;18.63;;;16.88;;
9661;SDS011;24982;52.344;12.990;2022-08-19T12:42:08;18.40;;;16.73;;
9661;SDS011;24982;52.344;12.990;2022-08-19T12:45:12;18.60;;;17.00;;
9661;SDS011;24982;52.344;12.990;2022-08-19T12:48:14;17.63;;;16.02;;
9661;SDS011;24982;52.344;12.990;2022-08-19T12:51:18;17.40;;;15.80;;
9661;SDS011;24982;52.344;12.990;2022-08-19T12:54:21;16.40;;;14.90;;
9661;SDS011;24982;52.344;12.990;2022-08-19T12:57:24;16.98;;;15.48;;
9661;SDS011;24982;52.344;12.990;2022-08-19T13:00:28;16.38;;;14.98;;
9661;SDS011;24982;52.344;12.990;2022-08-19T13:03:32;16.08;;;14.68;;
9661;SDS011;24982;52.344;12.990;2022-08-19T13:06:35;16.88;;;15.27;;
9661;SDS011;24982;52.344;12.990;2022-08-19T13:09:39;16.45;;;15.02;;
9661;SDS011;24982;52.344;12.990;2022-08-19T13:12:42;17.65;;;16.08;;
9661;SDS011;24982;52.344;12.990;2022-08-19T13:15:46;16.10;;;14.70;;
9661;SDS011;24982;52.344;12.990;2022-08-19T13:18:48;17.58;;;16.08;;
9661;SDS011;24982;52.344;12.990;2022-08-19T13:21:51;15.55;;;14.15;;
9661;SDS011;24982;52.344;12.990;2022-08-19T13:24:57;14.23;;;12.90;;
9661;SDS011;24982;52.344;12.990;2022-08-19T13:27:59;18.48;;;16.77;;
9661;SDS011;24982;52.344;12.990;2022-08-19T13:31:01;18.92;;;17.10;;
9661;SDS011;24982;52.344;12.990;2022-08-19T13:34:25;19.30;;;17.60;;
9661;SDS011;24982;52.344;12.990;2022-08-19T13:37:29;17.92;;;16.23;;
9661;SDS011;24982;52.344;12.990;2022-08-19T13:40:44;18.17;;;16.48;;
9661;SDS011;24982;52.344;12.990;2022-08-19T13:43:47;18.63;;;16.73;;
9661;SDS011;24982;52.344;12.990;2022-08-19T13:46:49;16.88;;;15.48;;
9661;SDS011;24982;52.344;12.990;2022-08-19T13:49:52;18.05;;;16.27;;
9661;SDS011;24982;52.344;12.990;2022-08-19T13:52:54;17.67;;;16.08;;
9661;SDS011;24982;52.344;12.990;2022-08-19T13:55:58;17.35;;;15.93;;
9661;SDS011;24982;52.344;12.990;2022-08-19T13:59:00;16.45;;;14.95;;
9661;SDS011;24982;52.344;12.990;2022-08-19T14:02:03;16.98;;;15.23;;
9661;SDS011;24982;52.344;12.990;2022-08-19T14:05:05;17.83;;;16.33;;
9661;SDS011;24982;52.344;12.990;2022-08-19T14:08:09;15.95;;;14.52;;
9661;SDS011;24982;52.344;12.990;2022-08-19T14:11:15;15.35;;;13.82;;
9661;SDS011;24982;52.344;12.990;2022-08-19T14:14:17;15.65;;;14.45;;
9661;SDS011;24982;52.344;12.990;2022-08-19T14:17:19;15.27;;;13.90;;
9661;SDS011;24982;52.344;12.990;2022-08-19T14:20:21;16.67;;;15.13;;
9661;SDS011;24982;52.344;12.990;2022-08-19T14:23:24;14.82;;;13.43;;
9661;SDS011;24982;52.344;12.990;2022-08-19T14:26:27;30.73;;;24.90;;
9661;SDS011;24982;52.344;12.990;2022-08-19T14:29:29;20.13;;;18.27;;
9661;SDS011;24982;52.344;12.990;2022-08-19T14:32:31;17.48;;;15.77;;
9661;SDS011;24982;52.344;12.990;2022-08-19T14:35:34;21.23;;;18.60;;
9661;SDS011;24982;52.344;12.990;2022-08-19T14:38:36;16.73;;;15.13;;
9661;SDS011;24982;52.344;12.990;2022-08-19T14:41:40;16.17;;;14.68;;
9661;SDS011;24982;52.344;12.990;2022-08-19T14:44:43;15.98;;;14.48;;
9661;SDS011;24982;52.344;12.990;2022-08-19T14:47:45;14.85;;;13.55;;
9661;SDS011;24982;52.344;12.990;2022-08-19T14:50:47;14.48;;;13.07;;
9661;SDS011;24982;52.344;12.990;2022-08-19T14:53:49;17.70;;;16.20;;
9661;SDS011;24982;52.344;12.990;2022-08-19T14:56:53;16.50;;;14.93;;
9661;SDS011;24982;52.344;12.990;2022-08-19T14:59:55;18.20;;;16.60;;
9661;SDS011;24982;52.344;12.990;2022-08-19T15:02:58;17.65;;;16.05;;
9661;SDS011;24982;52.344;12.990;2022-08-19T15:06:00;19.55;;;17.92;;
9661;SDS011;24982;52.344;12.990;2022-08-19T15:09:04;19.30;;;17.58;;
9661;SDS011;24982;52.344;12.990;2022-08-19T15:12:08;19.80;;;17.95;;
9661;SDS011;24982;52.344;12.990;2022-08-19T15:15:11;19.48;;;17.60;;
9661;SDS011;24982;52.344;12.990;2022-08-19T15:18:17;19.80;;;17.90;;
9661;SDS011;24982;52.344;12.990;2022-08-19T15:21:20;18.83;;;17.13;;
9661;SDS011;24982;52.344;12.990;2022-08-19T15:24:23;18.58;;;16.85;;
9661;SDS011;24982;52.344;12.990;2022-08-19T15:27:27;15.20;;;13.80;;
9661;SDS011;24982;52.344;12.990;2022-08-19T15:30:29;20.60;;;18.45;;
9661;SDS011;24982;52.344;12.990;2022-08-19T15:33:32;19.70;;;17.65;;
9661;SDS011;24982;52.344;12.990;2022-08-19T15:36:36;20.20;;;18.13;;
9661;SDS011;24982;52.344;12.990;2022-08-19T15:39:38;22.58;;;20.40;;
9661;SDS011;24982;52.344;12.990;2022-08-19T15:42:42;24.10;;;21.75;;
9661;SDS011;24982;52.344;12.990;2022-08-19T15:45:44;22.42;;;20.05;;
9661;SDS011;24982;52.344;12.990;2022-08-19T15:48:46;22.55;;;20.25;;
9661;SDS011;24982;52.344;12.990;2022-08-19T15:51:49;21.75;;;19.50;;
9661;SDS011;24982;52.344;12.990;2022-08-19T15:54:53;23.23;;;20.85;;
9661;SDS011;24982;52.344;12.990;2022-08-19T15:57:56;23.95;;;21.58;;
9661;SDS011;24982;52.344;12.990;2022-08-19T16:01:16;22.63;;;20.35;;
9661;SDS011;24982;52.344;12.990;2022-08-19T16:04:35;23.77;;;21.30;;
9661;SDS011;24982;52.344;12.990;2022-08-19T16:07:55;24.73;;;22.25;;
9661;SDS011;24982;52.344;12.990;2022-08-19T16:10:57;23.27;;;21.02;;
9661;SDS011;24982;52.344;12.990;2022-08-19T16:14:01;23.10;;;20.75;;
9661;SDS011;24982;52.344;12.990;2022-08-19T16:17:06;24.00;;;21.50;;
9661;SDS011;24982;52.344;12.990;2022-08-19T16:20:10;22.23;;;19.67;;
9661;SDS011;24982;52.344;12.990;2022-08-19T16:23:12;22.33;;;20.02;;
9661;SDS011;24982;52.344;12.990;2022-08-19T16:26:16;21.70;;;19.50;;
9661;SDS011;24982;52.344;12.990;2022-08-19T16:29:21;21.70;;;19.58;;
9661;SDS011;24982;52.344;12.990;2022-08-19T16:32:23;22.08;;;19.88;;
9661;SDS011;24982;52.344;12.990;2022-08-19T16:35:25;18.73;;;16.95;;
9661;SDS011;24982;52.344;12.990;2022-08-19T16:38:27;16.88;;;15.07;;
9661;SDS011;24982;52.344;12.990;2022-08-19T16:41:29;21.73;;;18.52;;
9661;SDS011;24982;52.344;12.990;2022-08-19T16:44:33;21.45;;;19.23;;
9661;SDS011;24982;52.344;12.990;2022-08-19T16:47:35;21.27;;;19.15;;
9661;SDS011;24982;52.344;12.990;2022-08-19T16:50:37;20.63;;;18.55;;
9661;SDS011;24982;52.344;12.990;2022-08-19T16:53:39;18.42;;;16.73;;
9661;SDS011;24982;52.344;12.990;2022-08-19T16:56:44;18.17;;;16.48;;
9661;SDS011;24982;52.344;12.990;2022-08-19T16:59:50;16.80;;;15.15;;
9661;SDS011;24982;52.344;12.990;2022-08-19T17:02:52;19.67;;;17.67;;
9661;SDS011;24982;52.344;12.990;2022-08-19T17:05:55;16.17;;;14.60;;
9661;SDS011;24982;52.344;12.990;2022-08-19T17:09:02;21.40;;;19.20;;
9661;SDS011;24982;52.344;12.990;2022-08-19T17:12:05;19.95;;;18.15;;
9661;SDS011;24982;52.344;12.990;2022-08-19T17:15:09;19.00;;;16.52;;
9661;SDS011;24982;52.344;12.990;2022-08-19T17:18:13;19.45;;;17.48;;
9661;SDS011;24982;52.344;12.990;2022-08-19T17:21:16;18.60;;;16.95;;
9661;SDS011;24982;52.344;12.990;2022-08-19T17:24:18;19.75;;;17.95;;
9661;SDS011;24982;52.344;12.990;2022-08-19T17:27:20;19.33;;;17.35;;
9661;SDS011;24982;52.344;12.990;2022-08-19T17:30:24;21.23;;;19.23;;
9661;SDS011;24982;52.344;12.990;2022-08-19T17:33:26;22.45;;;20.13;;
9661;SDS011;24982;52.344;12.990;2022-08-19T17:36:29;19.30;;;17.42;;
9661;SDS011;24982;52.344;12.990;2022-08-19T17:39:33;21.25;;;19.10;;
9661;SDS011;24982;52.344;12.990;2022-08-19T17:42:35;26.08;;;23.42;;
9661;SDS011;24982;52.344;12.990;2022-08-19T17:45:39;26.85;;;23.27;;
9661;SDS011;24982;52.344;12.990;2022-08-19T17:48:41;27.13;;;24.17;;
9661;SDS011;24982;52.344;12.990;2022-08-19T17:51:44;26.88;;;23.92;;
9661;SDS011;24982;52.344;12.990;2022-08-19T17:54:48;31.25;;;27.75;;
9661;SDS011;24982;52.344;12.990;2022-08-19T17:57:50;32.28;;;28.70;;
9661;SDS011;24982;52.344;12.990;2022-08-19T18:00:53;25.73;;;23.08;;